General Aviation Weather

Text Reports

Enter one or more of the following location identifiers separated by a space:

Zip Code, Four-Character ICAO or Three-Character IATA airport codes.

METAR - Aviation Routine Weather Report
VVNB - Ha Noi,
Updated at 6:30 AM GMT on October 21, 2014 (1:30 PM ICT):
METAR VVNB 210630Z 01005KT 320V100 9999 FEW020 BKN150 31/23 Q1014 NOSIG
TAF - Terminal Area Forecast
VVNB - Ha Noi,
Updated at 6:30 AM GMT on October 21, 2014 (1:30 PM ICT):
TAF VVNB 210500Z 2106/2206 34005KT 9999 FEW023 BKN100
      BECMG 2111/2112 3500 HZ
      BECMG 2115/2116 3000 BR
      BECMG 2117/2118 05006KT 2500 BR
      TEMPO 2118/2201 1200 -RA BR SCT015 BKN060
      BECMG 2202/2203 6000 NSW=
Decoded:
ID: VVNB   Hanoi/Noibai In, VS
REPORT TIME: 21  5: 0
VALID TIME: 21 October AT 06:00Z to 22 October AT 06:00Z.
INITIAL WX
   WINDS: 340 AT 5
   CLOUDS: 23 FEW
   CLOUDS: 100 BKN
WX BECOMING FROM 11Z TO 12Z
   VISIBILITY: 2.2 MILES
   WEATHER: HZ
WX BECOMING FROM 15Z TO 16Z
   VISIBILITY: 1.9 MILES
   WEATHER: BR
   COMMENTS: 000 FTAS33 KWBC 210506 RRA TAF TAF VVNB 210500Z 2106/2206 34005KT 9999 FEW023 BKN100 
WX BECOMING FROM 11Z TO 12Z
   VISIBILITY: 2.2 MILES
   WEATHER: HZ
WX BECOMING FROM 15Z TO 16Z
   VISIBILITY: 1.9 MILES
   WEATHER: BR
WX BECOMING FROM 17Z TO 18Z
   WINDS: 50 AT 6
   VISIBILITY: 1.6 MILES
   WEATHER: BR
TEMPORARY WX FROM 18Z TO 01Z
   VISIBILITY: 0.7 MILES
   WEATHER: -RA_BR
   CLOUDS: 15 SCT
   CLOUDS: 60 BKN
WX BECOMING FROM 02Z TO 03Z
   VISIBILITY: 3.7 MILES
   WEATHER: NSW
   COMMENTS: = 

PIREP - Pilot Weather Report
VVNB - Ha Noi,
Updated at 6:30 AM GMT on October 21, 2014 (1:30 PM ICT):
No PIREP is currently available for this location.
AIRMET - Airmens Meteorological Information
VVNB - Ha Noi,
Updated at 6:30 AM GMT on October 21, 2014 (1:30 PM ICT):
No AIRMET is currently available for this location.
SIGMET - Significant Meteorological Information
VVNB - Ha Noi,
Updated at 6:30 AM GMT on October 21, 2014 (1:30 PM ICT):
No SIGMET is currently available for this location.
NOTAM - Notice to Airmen
VVNB - Ha Noi,
Updated at 6:30 AM GMT on October 21, 2014 (1:30 PM ICT):
No NOTAM is currently available for this location.
Forecast Area
VVNB - Ha Noi,
Updated at 6:30 AM GMT on October 21, 2014 (1:30 PM ICT):
No NOTAM is currently available for this location.
Aviation Weather Maps